sensor_id;sensor_type;location;lat;lon;timestamp;pressure;altitude;pressure_sealevel;temperature;humidity
33191;BME280;19554;42.652;23.364;2022-08-07T00:00:33;94355.72;;;25.89;42.59
33191;BME280;19554;42.652;23.364;2022-08-07T00:02:58;94374.06;;;25.92;42.91
33191;BME280;19554;42.652;23.364;2022-08-07T00:05:24;94317.03;;;25.58;42.58
33191;BME280;19554;42.652;23.364;2022-08-07T00:07:51;94373.66;;;25.90;42.54
33191;BME280;19554;42.652;23.364;2022-08-07T00:10:16;94381.09;;;25.86;42.63
33191;BME280;19554;42.652;23.364;2022-08-07T00:12:42;94374.44;;;25.87;42.86
33191;BME280;19554;42.652;23.364;2022-08-07T00:15:10;94321.31;;;25.59;42.57
33191;BME280;19554;42.652;23.364;2022-08-07T00:17:35;94347.13;;;25.80;42.40
33191;BME280;19554;42.652;23.364;2022-08-07T00:20:02;94377.56;;;25.99;42.60
33191;BME280;19554;42.652;23.364;2022-08-07T00:22:28;94371.31;;;26.03;42.56
33191;BME280;19554;42.652;23.364;2022-08-07T00:24:53;94368.19;;;26.04;42.39
33191;BME280;19554;42.652;23.364;2022-08-07T00:27:18;94371.69;;;26.08;42.07
33191;BME280;19554;42.652;23.364;2022-08-07T00:29:44;94368.19;;;26.04;42.85
33191;BME280;19554;42.652;23.364;2022-08-07T00:32:11;94329.13;;;25.71;42.56
33191;BME280;19554;42.652;23.364;2022-08-07T00:34:38;94283.06;;;25.31;43.02
33191;BME280;19554;42.652;23.364;2022-08-07T00:37:04;94322.84;;;25.46;43.22
33191;BME280;19554;42.652;23.364;2022-08-07T00:39:29;94377.59;;;25.82;43.09
33191;BME280;19554;42.652;23.364;2022-08-07T00:41:56;94375.97;;;25.73;43.62
33191;BME280;19554;42.652;23.364;2022-08-07T00:44:22;94377.53;;;25.67;44.18
33191;BME280;19554;42.652;23.364;2022-08-07T00:46:49;94380.25;;;25.64;43.97
33191;BME280;19554;42.652;23.364;2022-08-07T00:49:15;94384.56;;;25.54;43.91
33191;BME280;19554;42.652;23.364;2022-08-07T00:51:41;94379.06;;;25.47;44.19
33191;BME280;19554;42.652;23.364;2022-08-07T00:54:07;94379.06;;;25.47;44.27
33191;BME280;19554;42.652;23.364;2022-08-07T00:56:33;94306.38;;;24.96;44.60
33191;BME280;19554;42.652;23.364;2022-08-07T00:58:59;94374.38;;;25.33;45.22
33191;BME280;19554;42.652;23.364;2022-08-07T01:01:24;94380.22;;;25.24;45.32
33191;BME280;19554;42.652;23.364;2022-08-07T01:03:50;94369.66;;;25.19;44.96
33191;BME280;19554;42.652;23.364;2022-08-07T01:06:17;94383.31;;;25.23;45.25
33191;BME280;19554;42.652;23.364;2022-08-07T01:08:43;94387.63;;;25.20;45.30
33191;BME280;19554;42.652;23.364;2022-08-07T01:11:13;94383.69;;;25.14;45.30
33191;BME280;19554;42.652;23.364;2022-08-07T01:13:39;94344.63;;;24.96;45.16
33191;BME280;19554;42.652;23.364;2022-08-07T01:16:06;94374.31;;;25.15;45.44
33191;BME280;19554;42.652;23.364;2022-08-07T01:18:32;94333.63;;;24.85;45.01
33191;BME280;19554;42.652;23.364;2022-08-07T01:21:24;94389.59;;;25.23;44.53
33191;BME280;19554;42.652;23.364;2022-08-07T01:23:53;94390.72;;;25.22;44.46
33191;BME280;19554;42.652;23.364;2022-08-07T01:26:19;94387.16;;;25.08;44.93
33191;BME280;19554;42.652;23.364;2022-08-07T01:28:47;94391.38;;;24.91;45.34
33191;BME280;19554;42.652;23.364;2022-08-07T01:31:14;94393.72;;;24.89;45.33
33191;BME280;19554;42.652;23.364;2022-08-07T01:33:40;94367.97;;;24.82;45.07
33191;BME280;19554;42.652;23.364;2022-08-07T01:36:06;94384.41;;;24.97;45.05
33191;BME280;19554;42.652;23.364;2022-08-07T01:38:34;94389.88;;;25.04;45.05
33191;BME280;19554;42.652;23.364;2022-08-07T01:41:01;94382.44;;;24.94;45.38
33191;BME280;19554;42.652;23.364;2022-08-07T01:43:28;94386.34;;;25.00;45.26
33191;BME280;19554;42.652;23.364;2022-08-07T01:45:56;94363.28;;;24.87;45.28
33191;BME280;19554;42.652;23.364;2022-08-07T01:48:22;94367.19;;;24.82;44.54
33191;BME280;19554;42.652;23.364;2022-08-07T01:51:23;94400.84;;;25.11;45.02
33191;BME280;19554;42.652;23.364;2022-08-07T01:53:45;94415.72;;;25.17;45.08
33191;BME280;19554;42.652;23.364;2022-08-07T01:56:45;94435.06;;;24.91;46.47
33191;BME280;19554;42.652;23.364;2022-08-07T01:59:23;94473.59;;;24.23;47.62
33191;BME280;19554;42.652;23.364;2022-08-07T02:02:02;94491.25;;;23.21;50.72
33191;BME280;19554;42.652;23.364;2022-08-07T02:04:43;94493.56;;;23.19;50.82
33191;BME280;19554;42.652;23.364;2022-08-07T02:07:12;94475.16;;;23.09;50.87
33191;BME280;19554;42.652;23.364;2022-08-07T02:09:41;94479.06;;;23.08;50.92
33191;BME280;19554;42.652;23.364;2022-08-07T02:12:09;94495.78;;;23.10;51.01
33191;BME280;19554;42.652;23.364;2022-08-07T02:14:48;94492.03;;;23.18;51.04
33191;BME280;19554;42.652;23.364;2022-08-07T02:17:15;94498.44;;;23.36;50.87
33191;BME280;19554;42.652;23.364;2022-08-07T02:19:43;94509.44;;;23.44;51.15
33191;BME280;19554;42.652;23.364;2022-08-07T02:22:11;94504.72;;;23.40;51.85
33191;BME280;19554;42.652;23.364;2022-08-07T02:24:39;94512.72;;;23.60;52.18
33191;BME280;19554;42.652;23.364;2022-08-07T02:27:06;94499.75;;;23.83;51.77
33191;BME280;19554;42.652;23.364;2022-08-07T02:29:33;94453.66;;;23.68;51.99
33191;BME280;19554;42.652;23.364;2022-08-07T02:32:00;94490.72;;;24.20;51.75
33191;BME280;19554;42.652;23.364;2022-08-07T02:34:27;94475.63;;;24.33;52.40
33191;BME280;19554;42.652;23.364;2022-08-07T02:36:54;94477.56;;;24.29;53.33
33191;BME280;19554;42.652;23.364;2022-08-07T02:39:22;94475.28;;;24.39;53.46
33191;BME280;19554;42.652;23.364;2022-08-07T02:41:49;94451.50;;;24.35;53.38
33191;BME280;19554;42.652;23.364;2022-08-07T02:44:15;94393.25;;;24.10;53.46
33191;BME280;19554;42.652;23.364;2022-08-07T02:46:42;94429.38;;;24.48;53.37
33191;BME280;19554;42.652;23.364;2022-08-07T02:49:08;94424.72;;;24.48;53.66
33191;BME280;19554;42.652;23.364;2022-08-07T02:51:35;94431.66;;;24.39;54.00
33191;BME280;19554;42.652;23.364;2022-08-07T02:54:01;94433.19;;;24.40;54.35
33191;BME280;19554;42.652;23.364;2022-08-07T02:56:29;94388.63;;;24.14;54.24
33191;BME280;19554;42.652;23.364;2022-08-07T02:58:59;94421.50;;;24.39;54.62
33191;BME280;19554;42.652;23.364;2022-08-07T03:01:26;94412.88;;;24.33;55.50
33191;BME280;19554;42.652;23.364;2022-08-07T03:03:52;94415.28;;;24.39;55.26
33191;BME280;19554;42.652;23.364;2022-08-07T03:06:21;94406.69;;;24.36;55.47
33191;BME280;19554;42.652;23.364;2022-08-07T03:08:48;94380.88;;;24.23;56.13
33191;BME280;19554;42.652;23.364;2022-08-07T03:11:13;94410.66;;;24.43;56.09
33191;BME280;19554;42.652;23.364;2022-08-07T03:13:41;94405.19;;;24.43;56.02
33191;BME280;19554;42.652;23.364;2022-08-07T03:16:07;94317.63;;;24.00;55.88
33191;BME280;19554;42.652;23.364;2022-08-07T03:18:33;94399.00;;;24.53;55.56
33191;BME280;19554;42.652;23.364;2022-08-07T03:20:59;94398.25;;;24.56;55.36
33191;BME280;19554;42.652;23.364;2022-08-07T03:23:26;94391.25;;;24.55;55.10
33191;BME280;19554;42.652;23.364;2022-08-07T03:25:52;94401.00;;;24.63;55.59
33191;BME280;19554;42.652;23.364;2022-08-07T03:28:20;94403.41;;;24.72;55.24
33191;BME280;19554;42.652;23.364;2022-08-07T03:30:47;94403.78;;;24.74;55.44
33191;BME280;19554;42.652;23.364;2022-08-07T03:33:14;94394.34;;;24.57;55.08
33191;BME280;19554;42.652;23.364;2022-08-07T03:35:41;94404.44;;;24.46;56.43
33191;BME280;19554;42.652;23.364;2022-08-07T03:38:08;94419.59;;;23.92;57.98
33191;BME280;19554;42.652;23.364;2022-08-07T03:40:35;94342.34;;;22.91;59.56
33191;BME280;19554;42.652;23.364;2022-08-07T03:43:02;94410.22;;;23.11;60.76
33191;BME280;19554;42.652;23.364;2022-08-07T03:45:28;94419.91;;;23.05;61.55
33191;BME280;19554;42.652;23.364;2022-08-07T03:47:55;94420.59;;;22.98;61.79
33191;BME280;19554;42.652;23.364;2022-08-07T03:50:21;94350.72;;;22.45;62.60
33191;BME280;19554;42.652;23.364;2022-08-07T03:52:50;94428.69;;;22.64;63.99
33191;BME280;19554;42.652;23.364;2022-08-07T03:55:16;94431.47;;;22.68;64.54
33191;BME280;19554;42.652;23.364;2022-08-07T03:57:44;94430.72;;;22.71;64.33
33191;BME280;19554;42.652;23.364;2022-08-07T04:00:10;94438.16;;;22.74;64.53
33191;BME280;19554;42.652;23.364;2022-08-07T04:02:36;94434.16;;;22.94;64.70
33191;BME280;19554;42.652;23.364;2022-08-07T04:05:01;94447.44;;;23.33;64.05
33191;BME280;19554;42.652;23.364;2022-08-07T04:07:30;94434.94;;;23.66;62.71
33191;BME280;19554;42.652;23.364;2022-08-07T04:09:56;94359.34;;;23.56;61.83
33191;BME280;19554;42.652;23.364;2022-08-07T04:12:22;94445.09;;;24.65;59.68
33191;BME280;19554;42.652;23.364;2022-08-07T04:14:48;94440.66;;;25.12;58.11
33191;BME280;19554;42.652;23.364;2022-08-07T04:17:14;94436.88;;;25.56;56.58
33191;BME280;19554;42.652;23.364;2022-08-07T04:19:41;94438.13;;;25.94;55.53
33191;BME280;19554;42.652;23.364;2022-08-07T04:22:06;94380.31;;;25.82;54.32
33191;BME280;19554;42.652;23.364;2022-08-07T04:24:33;94446.34;;;26.48;53.92
33191;BME280;19554;42.652;23.364;2022-08-07T04:26:59;94446.31;;;26.69;53.34
33191;BME280;19554;42.652;23.364;2022-08-07T04:29:27;94452.91;;;26.83;53.04
33191;BME280;19554;42.652;23.364;2022-08-07T04:31:54;94391.59;;;26.55;52.25
33191;BME280;19554;42.652;23.364;2022-08-07T04:34:21;94453.22;;;27.10;51.76
33191;BME280;19554;42.652;23.364;2022-08-07T04:36:47;94445.31;;;27.37;51.60
33191;BME280;19554;42.652;23.364;2022-08-07T04:39:12;94453.84;;;27.53;51.07
33191;BME280;19554;42.652;23.364;2022-08-07T04:41:38;94456.97;;;27.55;51.62
33191;BME280;19554;42.652;23.364;2022-08-07T04:44:04;94455.63;;;26.97;53.56
33191;BME280;19554;42.652;23.364;2022-08-07T04:46:37;94455.31;;;26.45;54.88
33191;BME280;19554;42.652;23.364;2022-08-07T04:52:02;94452.56;;;26.70;53.62
33191;BME280;19554;42.652;23.364;2022-08-07T04:55:48;94467.41;;;26.73;52.78
33191;BME280;19554;42.652;23.364;2022-08-07T04:57:50;94461.97;;;26.33;52.89
33191;BME280;19554;42.652;23.364;2022-08-07T05:00:19;94459.63;;;26.32;53.26
33191;BME280;19554;42.652;23.364;2022-08-07T05:03:00;94465.88;;;25.93;54.35
33191;BME280;19554;42.652;23.364;2022-08-07T05:05:39;94475.19;;;25.77;54.90
33191;BME280;19554;42.652;23.364;2022-08-07T05:08:25;94481.81;;;25.62;55.42
33191;BME280;19554;42.652;23.364;2022-08-07T05:10:59;94479.13;;;25.80;55.15
33191;BME280;19554;42.652;23.364;2022-08-07T05:13:36;94491.66;;;25.85;55.29
33191;BME280;19554;42.652;23.364;2022-08-07T05:16:08;94481.91;;;26.12;55.25
33191;BME280;19554;42.652;23.364;2022-08-07T05:18:38;94487.03;;;26.53;53.40
33191;BME280;19554;42.652;23.364;2022-08-07T05:21:07;94492.47;;;26.78;52.23
33191;BME280;19554;42.652;23.364;2022-08-07T05:24:02;94485.34;;;27.13;51.70
33191;BME280;19554;42.652;23.364;2022-08-07T05:26:31;94492.63;;;27.48;50.31
33191;BME280;19554;42.652;23.364;2022-08-07T05:28:59;94501.63;;;27.59;49.14
33191;BME280;19554;42.652;23.364;2022-08-07T05:31:31;94442.19;;;27.35;48.56
33191;BME280;19554;42.652;23.364;2022-08-07T05:33:58;94447.19;;;27.54;48.87
33191;BME280;19554;42.652;23.364;2022-08-07T05:36:25;94495.84;;;28.09;47.92
33191;BME280;19554;42.652;23.364;2022-08-07T05:38:52;94500.56;;;28.05;48.81
33191;BME280;19554;42.652;23.364;2022-08-07T05:41:19;94495.44;;;28.15;47.69
33191;BME280;19554;42.652;23.364;2022-08-07T05:43:47;94477.97;;;27.87;48.45
33191;BME280;19554;42.652;23.364;2022-08-07T05:46:15;94505.56;;;28.21;48.00
33191;BME280;19554;42.652;23.364;2022-08-07T05:48:41;94506.69;;;28.31;47.65
33191;BME280;19554;42.652;23.364;2022-08-07T05:51:08;94519.22;;;28.32;47.01
33191;BME280;19554;42.652;23.364;2022-08-07T05:53:34;94513.63;;;28.46;47.23
33191;BME280;19554;42.652;23.364;2022-08-07T05:56:00;94523.69;;;28.64;46.80
33191;BME280;19554;42.652;23.364;2022-08-07T05:58:27;94535.34;;;28.75;45.96
33191;BME280;19554;42.652;23.364;2022-08-07T06:00:54;94537.50;;;28.98;45.49
33191;BME280;19554;42.652;23.364;2022-08-07T06:03:22;94531.72;;;29.30;44.97
33191;BME280;19554;42.652;23.364;2022-08-07T06:05:48;94538.03;;;29.65;44.06
33191;BME280;19554;42.652;23.364;2022-08-07T06:08:17;94523.78;;;29.70;43.75
33191;BME280;19554;42.652;23.364;2022-08-07T06:10:43;94533.03;;;30.14;42.60
33191;BME280;19554;42.652;23.364;2022-08-07T06:13:10;94519.38;;;30.07;43.04
33191;BME280;19554;42.652;23.364;2022-08-07T06:15:35;94533.31;;;30.23;43.22
33191;BME280;19554;42.652;23.364;2022-08-07T06:18:02;94506.59;;;30.47;42.44
33191;BME280;19554;42.652;23.364;2022-08-07T06:20:30;94529.56;;;30.87;40.58
33191;BME280;19554;42.652;23.364;2022-08-07T06:22:56;94535.53;;;31.06;39.83
33191;BME280;19554;42.652;23.364;2022-08-07T06:25:23;94538.81;;;31.21;38.77
33191;BME280;19554;42.652;23.364;2022-08-07T06:27:48;94537.31;;;31.16;38.66
33191;BME280;19554;42.652;23.364;2022-08-07T06:30:14;94531.97;;;31.29;38.64
33191;BME280;19554;42.652;23.364;2022-08-07T06:32:39;94542.97;;;31.32;38.55
33191;BME280;19554;42.652;23.364;2022-08-07T06:35:05;94525.91;;;31.37;38.36
33191;BME280;19554;42.652;23.364;2022-08-07T06:37:31;94527.69;;;31.48;37.31
33191;BME280;19554;42.652;23.364;2022-08-07T06:39:56;94534.47;;;31.63;37.65
33191;BME280;19554;42.652;23.364;2022-08-07T06:42:27;94531.50;;;31.54;37.48
33191;BME280;19554;42.652;23.364;2022-08-07T06:44:55;94527.53;;;31.55;37.08
33191;BME280;19554;42.652;23.364;2022-08-07T06:47:21;94522.88;;;31.52;36.27
33191;BME280;19554;42.652;23.364;2022-08-07T06:49:47;94536.41;;;31.23;37.92
33191;BME280;19554;42.652;23.364;2022-08-07T06:52:14;94519.00;;;31.06;38.13
33191;BME280;19554;42.652;23.364;2022-08-07T06:54:41;94527.16;;;30.89;38.70
33191;BME280;19554;42.652;23.364;2022-08-07T06:57:08;94532.19;;;30.71;38.82
33191;BME280;19554;42.652;23.364;2022-08-07T06:59:39;94514.34;;;30.79;39.28
33191;BME280;19554;42.652;23.364;2022-08-07T07:02:07;94530.72;;;30.63;39.25
33191;BME280;19554;42.652;23.364;2022-08-07T07:04:37;94534.50;;;30.73;38.97
33191;BME280;19554;42.652;23.364;2022-08-07T07:07:03;94502.69;;;29.90;39.87
33191;BME280;19554;42.652;23.364;2022-08-07T07:09:31;94546.00;;;29.86;40.66
33191;BME280;19554;42.652;23.364;2022-08-07T07:12:09;94543.22;;;29.18;40.95
33191;BME280;19554;42.652;23.364;2022-08-07T07:19:53;94535.25;;;30.26;39.70
33191;BME280;19554;42.652;23.364;2022-08-07T07:22:20;94536.91;;;30.20;39.35
33191;BME280;19554;42.652;23.364;2022-08-07T07:24:46;94536.88;;;29.59;40.60
33191;BME280;19554;42.652;23.364;2022-08-07T07:27:16;94538.28;;;29.74;41.00
33191;BME280;19554;42.652;23.364;2022-08-07T07:29:46;94540.59;;;29.07;42.81
33191;BME280;19554;42.652;23.364;2022-08-07T07:32:14;94534.97;;;29.18;41.06
33191;BME280;19554;42.652;23.364;2022-08-07T07:34:53;94524.06;;;29.11;41.62
33191;BME280;19554;42.652;23.364;2022-08-07T07:37:22;94527.84;;;29.62;41.06
33191;BME280;19554;42.652;23.364;2022-08-07T07:39:51;94534.38;;;30.33;39.29
33191;BME280;19554;42.652;23.364;2022-08-07T07:42:19;94520.47;;;30.13;38.61
33191;BME280;19554;42.652;23.364;2022-08-07T07:44:47;94543.19;;;30.20;38.77
33191;BME280;19554;42.652;23.364;2022-08-07T07:47:13;94550.75;;;30.13;37.53
33191;BME280;19554;42.652;23.364;2022-08-07T07:49:40;94527.50;;;29.52;39.12
33191;BME280;19554;42.652;23.364;2022-08-07T07:52:07;94549.59;;;29.45;39.11
33191;BME280;19554;42.652;23.364;2022-08-07T07:54:35;94553.47;;;29.51;39.11
33191;BME280;19554;42.652;23.364;2022-08-07T07:57:02;94559.88;;;29.03;39.80
33191;BME280;19554;42.652;23.364;2022-08-07T07:59:28;94484.38;;;28.74;39.56
33191;BME280;19554;42.652;23.364;2022-08-07T08:01:55;94559.13;;;28.47;40.45
33191;BME280;19554;42.652;23.364;2022-08-07T08:04:22;94561.81;;;29.07;39.79
33191;BME280;19554;42.652;23.364;2022-08-07T08:06:48;94554.59;;;29.20;39.19
33191;BME280;19554;42.652;23.364;2022-08-07T08:09:18;94561.03;;;28.99;39.58
33191;BME280;19554;42.652;23.364;2022-08-07T08:11:44;94556.47;;;28.29;40.85
33191;BME280;19554;42.652;23.364;2022-08-07T08:14:10;94565.72;;;27.94;41.15
33191;BME280;19554;42.652;23.364;2022-08-07T08:16:38;94563.44;;;27.78;41.66
33191;BME280;19554;42.652;23.364;2022-08-07T08:19:09;94557.28;;;27.49;42.08
33191;BME280;19554;42.652;23.364;2022-08-07T08:21:39;94552.13;;;27.62;42.23
33191;BME280;19554;42.652;23.364;2022-08-07T08:24:26;94548.81;;;27.99;41.84
33191;BME280;19554;42.652;23.364;2022-08-07T08:27:11;94488.22;;;27.69;41.29
33191;BME280;19554;42.652;23.364;2022-08-07T08:29:53;94558.44;;;28.32;40.47
33191;BME280;19554;42.652;23.364;2022-08-07T08:32:24;94552.25;;;28.18;40.41
33191;BME280;19554;42.652;23.364;2022-08-07T08:34:50;94554.28;;;28.66;40.43
33191;BME280;19554;42.652;23.364;2022-08-07T08:37:17;94567.56;;;28.71;39.88
33191;BME280;19554;42.652;23.364;2022-08-07T08:39:44;94569.81;;;28.31;40.35
33191;BME280;19554;42.652;23.364;2022-08-07T08:42:20;94569.34;;;28.43;40.51
33191;BME280;19554;42.652;23.364;2022-08-07T08:50:00;94567.09;;;28.24;40.44
33191;BME280;19554;42.652;23.364;2022-08-07T08:55:05;94567.94;;;28.14;40.10
33191;BME280;19554;42.652;23.364;2022-08-07T08:57:41;94547.41;;;28.40;39.52
33191;BME280;19554;42.652;23.364;2022-08-07T09:00:09;94561.06;;;28.95;39.59
33191;BME280;19554;42.652;23.364;2022-08-07T09:05:32;94562.13;;;28.67;39.24
33191;BME280;19554;42.652;23.364;2022-08-07T09:08:10;94559.03;;;28.58;39.62
33191;BME280;19554;42.652;23.364;2022-08-07T09:10:50;94556.03;;;28.45;39.77
33191;BME280;19554;42.652;23.364;2022-08-07T09:13:53;94554.16;;;28.80;39.87
33191;BME280;19554;42.652;23.364;2022-08-07T09:16:35;94559.91;;;29.00;38.82
33191;BME280;19554;42.652;23.364;2022-08-07T09:19:24;94549.31;;;28.95;38.80
33191;BME280;19554;42.652;23.364;2022-08-07T09:35:24;94552.19;;;28.80;36.88
33191;BME280;19554;42.652;23.364;2022-08-07T09:38:05;94552.53;;;28.86;37.57
33191;BME280;19554;42.652;23.364;2022-08-07T09:46:20;94525.25;;;28.65;37.61
33191;BME280;19554;42.652;23.364;2022-08-07T09:49:00;94519.81;;;29.02;37.39
33191;BME280;19554;42.652;23.364;2022-08-07T09:54:12;94508.34;;;29.11;37.14
33191;BME280;19554;42.652;23.364;2022-08-07T09:57:19;94516.91;;;29.20;36.89
33191;BME280;19554;42.652;23.364;2022-08-07T10:00:17;94520.91;;;29.46;36.19
33191;BME280;19554;42.652;23.364;2022-08-07T10:17:11;94499.63;;;29.20;36.19
33191;BME280;19554;42.652;23.364;2022-08-07T10:22:59;94500.84;;;28.74;36.62
33191;BME280;19554;42.652;23.364;2022-08-07T10:29:24;94496.22;;;28.64;35.77
33191;BME280;19554;42.652;23.364;2022-08-07T10:43:41;94510.59;;;29.23;36.64
33191;BME280;19554;42.652;23.364;2022-08-07T10:46:14;94514.16;;;28.79;36.64
33191;BME280;19554;42.652;23.364;2022-08-07T10:51:28;94513.44;;;28.68;37.10
33191;BME280;19554;42.652;23.364;2022-08-07T10:54:16;94491.28;;;28.44;36.86
33191;BME280;19554;42.652;23.364;2022-08-07T10:56:52;94517.56;;;28.49;37.22
33191;BME280;19554;42.652;23.364;2022-08-07T11:03:18;94502.13;;;28.62;36.84
33191;BME280;19554;42.652;23.364;2022-08-07T11:11:03;94470.72;;;28.15;36.76
33191;BME280;19554;42.652;23.364;2022-08-07T11:13:37;94499.81;;;28.01;37.54
33191;BME280;19554;42.652;23.364;2022-08-07T11:16:07;94511.34;;;27.71;38.86
33191;BME280;19554;42.652;23.364;2022-08-07T11:18:36;94507.25;;;28.04;38.61
33191;BME280;19554;42.652;23.364;2022-08-07T11:21:08;94501.66;;;28.19;39.05
33191;BME280;19554;42.652;23.364;2022-08-07T11:23:56;94499.88;;;28.50;39.32
33191;BME280;19554;42.652;23.364;2022-08-07T11:26:48;94497.75;;;28.72;39.03
33191;BME280;19554;42.652;23.364;2022-08-07T11:29:30;94503.59;;;28.74;38.38
33191;BME280;19554;42.652;23.364;2022-08-07T11:32:33;94491.31;;;28.86;38.85
33191;BME280;19554;42.652;23.364;2022-08-07T11:35:15;94497.66;;;28.79;39.43
33191;BME280;19554;42.652;23.364;2022-08-07T11:37:58;94506.03;;;28.09;40.82
33191;BME280;19554;42.652;23.364;2022-08-07T11:43:16;94498.75;;;27.84;41.27
33191;BME280;19554;42.652;23.364;2022-08-07T11:54:20;94516.28;;;28.01;41.10
33191;BME280;19554;42.652;23.364;2022-08-07T11:57:19;94513.44;;;28.16;41.53
33191;BME280;19554;42.652;23.364;2022-08-07T12:02:41;94507.50;;;28.28;41.00
33191;BME280;19554;42.652;23.364;2022-08-07T12:08:14;94511.16;;;28.07;41.04
33191;BME280;19554;42.652;23.364;2022-08-07T12:10:48;94502.25;;;27.88;41.11
33191;BME280;19554;42.652;23.364;2022-08-07T12:15:53;94502.97;;;28.00;42.75
33191;BME280;19554;42.652;23.364;2022-08-07T12:18:44;94508.47;;;27.96;42.67
33191;BME280;19554;42.652;23.364;2022-08-07T12:21:25;94517.28;;;27.62;43.46
33191;BME280;19554;42.652;23.364;2022-08-07T12:24:24;94505.63;;;27.33;42.76
33191;BME280;19554;42.652;23.364;2022-08-07T12:27:13;94502.06;;;27.47;43.21
33191;BME280;19554;42.652;23.364;2022-08-07T12:29:48;94416.56;;;26.79;43.95
33191;BME280;19554;42.652;23.364;2022-08-07T12:32:19;94498.53;;;27.43;43.85
33191;BME280;19554;42.652;23.364;2022-08-07T12:34:46;94479.69;;;27.59;43.82
33191;BME280;19554;42.652;23.364;2022-08-07T12:37:14;94477.88;;;28.01;43.29
33191;BME280;19554;42.652;23.364;2022-08-07T12:39:45;94476.03;;;28.40;42.52
33191;BME280;19554;42.652;23.364;2022-08-07T12:42:11;94481.25;;;28.68;41.77
33191;BME280;19554;42.652;23.364;2022-08-07T12:44:44;94378.00;;;27.92;40.67
33191;BME280;19554;42.652;23.364;2022-08-07T12:55:03;94478.53;;;28.20;40.05
33191;BME280;19554;42.652;23.364;2022-08-07T12:57:36;94450.50;;;27.94;40.36
33191;BME280;19554;42.652;23.364;2022-08-07T13:00:03;94475.44;;;28.14;40.65
33191;BME280;19554;42.652;23.364;2022-08-07T13:03:16;94470.16;;;27.82;41.77
33191;BME280;19554;42.652;23.364;2022-08-07T13:11:38;94467.06;;;27.80;41.89
33191;BME280;19554;42.652;23.364;2022-08-07T13:14:23;94465.34;;;28.00;41.66
33191;BME280;19554;42.652;23.364;2022-08-07T13:16:59;94462.13;;;28.09;39.87
33191;BME280;19554;42.652;23.364;2022-08-07T13:19:49;94462.59;;;28.00;40.93
33191;BME280;19554;42.652;23.364;2022-08-07T13:22:29;94425.56;;;27.67;40.90
33191;BME280;19554;42.652;23.364;2022-08-07T13:27:30;94455.53;;;27.99;40.45
33191;BME280;19554;42.652;23.364;2022-08-07T13:30:03;94405.03;;;27.93;39.61
33191;BME280;19554;42.652;23.364;2022-08-07T13:32:38;94450.94;;;28.41;39.00
33191;BME280;19554;42.652;23.364;2022-08-07T13:35:10;94451.84;;;28.69;37.72
33191;BME280;19554;42.652;23.364;2022-08-07T13:40:19;94447.63;;;28.95;37.67
33191;BME280;19554;42.652;23.364;2022-08-07T13:42:50;94452.13;;;28.78;37.95
33191;BME280;19554;42.652;23.364;2022-08-07T13:45:18;94423.34;;;28.55;37.74
33191;BME280;19554;42.652;23.364;2022-08-07T13:47:46;94455.94;;;28.91;37.54
33191;BME280;19554;42.652;23.364;2022-08-07T13:50:19;94449.47;;;29.09;37.59
33191;BME280;19554;42.652;23.364;2022-08-07T13:52:47;94453.81;;;29.10;37.60
33191;BME280;19554;42.652;23.364;2022-08-07T13:55:15;94436.47;;;28.75;38.50
33191;BME280;19554;42.652;23.364;2022-08-07T13:57:44;94440.06;;;28.72;38.55
33191;BME280;19554;42.652;23.364;2022-08-07T14:00:11;94440.59;;;28.56;38.10
33191;BME280;19554;42.652;23.364;2022-08-07T14:02:39;94431.06;;;28.23;38.05
33191;BME280;19554;42.652;23.364;2022-08-07T14:05:11;94454.78;;;28.47;37.80
33191;BME280;19554;42.652;23.364;2022-08-07T14:07:46;94473.84;;;28.17;39.83
33191;BME280;19554;42.652;23.364;2022-08-07T14:10:13;94412.25;;;27.65;40.92
33191;BME280;19554;42.652;23.364;2022-08-07T14:12:51;94479.56;;;27.81;40.00
33191;BME280;19554;42.652;23.364;2022-08-07T14:15:29;94465.72;;;27.29;41.29
33191;BME280;19554;42.652;23.364;2022-08-07T14:18:00;94470.78;;;27.34;40.64
33191;BME280;19554;42.652;23.364;2022-08-07T14:20:29;94483.69;;;27.33;40.95
33191;BME280;19554;42.652;23.364;2022-08-07T14:23:02;94479.72;;;27.45;40.42
33191;BME280;19554;42.652;23.364;2022-08-07T14:25:31;94479.00;;;27.34;40.26
33191;BME280;19554;42.652;23.364;2022-08-07T14:27:57;94474.25;;;27.41;40.10
33191;BME280;19554;42.652;23.364;2022-08-07T14:30:28;94491.81;;;27.58;40.06
33191;BME280;19554;42.652;23.364;2022-08-07T14:32:57;94491.47;;;27.49;40.73
33191;BME280;19554;42.652;23.364;2022-08-07T14:35:25;94488.22;;;27.69;40.90
33191;BME280;19554;42.652;23.364;2022-08-07T14:37:53;94452.97;;;27.71;41.04
33191;BME280;19554;42.652;23.364;2022-08-07T14:40:20;94454.50;;;27.75;41.64
33191;BME280;19554;42.652;23.364;2022-08-07T14:42:53;94463.91;;;27.81;42.25
33191;BME280;19554;42.652;23.364;2022-08-07T14:45:19;94400.56;;;27.54;41.67
33191;BME280;19554;42.652;23.364;2022-08-07T14:47:45;94471.56;;;28.08;41.48
33191;BME280;19554;42.652;23.364;2022-08-07T14:50:12;94468.28;;;28.24;41.19
33191;BME280;19554;42.652;23.364;2022-08-07T14:52:44;94469.00;;;28.35;40.92
33191;BME280;19554;42.652;23.364;2022-08-07T14:55:13;94472.97;;;28.27;40.48
33191;BME280;19554;42.652;23.364;2022-08-07T14:57:39;94466.69;;;28.26;39.94
33191;BME280;19554;42.652;23.364;2022-08-07T15:00:05;94377.66;;;27.86;40.03
33191;BME280;19554;42.652;23.364;2022-08-07T15:02:33;94453.22;;;28.46;39.33
33191;BME280;19554;42.652;23.364;2022-08-07T15:05:02;94462.16;;;28.57;39.43
33191;BME280;19554;42.652;23.364;2022-08-07T15:07:27;94456.28;;;28.55;39.36
33191;BME280;19554;42.652;23.364;2022-08-07T15:09:56;94451.94;;;28.58;39.13
33191;BME280;19554;42.652;23.364;2022-08-07T15:12:25;94460.03;;;28.76;38.90